createdAt,value
2022-09-28T00:02:12.135Z,6.87
2022-09-28T00:07:15.477Z,4.30
2022-09-28T00:12:21.754Z,5.03
2022-09-28T00:17:26.475Z,6.15
2022-09-28T00:22:29.611Z,5.43
2022-09-28T00:27:34.388Z,4.13
2022-09-28T00:32:37.604Z,5.00
2022-09-28T00:37:40.925Z,4.35
2022-09-28T00:42:46.387Z,6.35
2022-09-28T00:47:54.950Z,5.95
2022-09-28T00:53:02.291Z,5.00
2022-09-28T00:58:11.767Z,9.15
2022-09-28T01:03:16.437Z,7.10
2022-09-28T01:08:21.662Z,7.75
2022-09-28T01:18:37.827Z,6.82
2022-09-28T01:24:05.216Z,6.05
2022-09-28T01:29:17.633Z,9.65
2022-09-28T01:34:26.713Z,8.52
2022-09-28T01:39:33.254Z,7.80
2022-09-28T01:44:43.415Z,7.82
2022-09-28T01:49:51.867Z,8.98
2022-09-28T01:54:59.644Z,8.98
2022-09-28T02:00:08.428Z,12.43
2022-09-28T02:05:29.622Z,8.80
2022-09-28T02:10:38.614Z,7.32
2022-09-28T02:15:51.066Z,6.28
2022-09-28T02:21:06.491Z,13.65
2022-09-28T02:26:14.302Z,6.20
2022-09-28T02:31:19.336Z,8.02
2022-09-28T02:36:23.157Z,7.53
2022-09-28T02:41:35.124Z,6.18
2022-09-28T02:46:47.877Z,6.95
2022-09-28T02:52:15.399Z,7.03
2022-09-28T02:57:30.554Z,8.90
2022-09-28T03:07:52.333Z,6.47
2022-09-28T03:12:56.527Z,8.18
2022-09-28T03:18:01.552Z,8.15
2022-09-28T03:23:23.746Z,8.82
2022-09-28T03:28:28.176Z,9.32
2022-09-28T03:33:33.188Z,9.98
2022-09-28T03:38:36.593Z,9.00
2022-09-28T03:43:40.208Z,12.90
2022-09-28T03:48:44.778Z,10.25
2022-09-28T03:53:48.055Z,11.43
2022-09-28T03:58:51.355Z,12.02
2022-09-28T04:03:56.437Z,8.32
2022-09-28T04:09:00.313Z,9.05
2022-09-28T04:14:03.655Z,9.07
2022-09-28T04:19:34.832Z,11.20
2022-09-28T04:24:47.560Z,9.50
2022-09-28T04:29:50.922Z,11.73
2022-09-28T04:34:56.068Z,10.15
2022-09-28T04:39:59.490Z,13.80
2022-09-28T04:45:04.833Z,11.65
2022-09-28T04:50:12.740Z,8.18
2022-09-28T05:00:40.198Z,12.07
2022-09-28T05:05:55.445Z,13.93
2022-09-28T05:11:18.378Z,12.93
2022-09-28T05:16:21.751Z,15.88
2022-09-28T05:21:49.214Z,11.15
2022-09-28T05:26:52.781Z,12.82
2022-09-28T05:31:56.718Z,14.52
2022-09-28T05:37:10.451Z,11.35
2022-09-28T05:42:13.681Z,13.37
2022-09-28T05:47:16.968Z,13.70
2022-09-28T05:52:22.273Z,10.82
2022-09-28T05:57:25.644Z,10.90
2022-09-28T06:02:28.815Z,15.75
2022-09-28T06:07:33.392Z,16.50
2022-09-28T06:12:36.703Z,15.23
2022-09-28T06:17:44.559Z,13.73
2022-09-28T06:23:07.816Z,14.38
2022-09-28T06:28:12.544Z,15.70
2022-09-28T06:33:16.398Z,16.60
2022-09-28T06:38:21.145Z,13.73
2022-09-28T06:43:25.733Z,17.00
2022-09-28T06:48:47.326Z,16.10
2022-09-28T06:54:10.600Z,14.40
2022-09-28T06:59:16.907Z,16.50
2022-09-28T07:04:20.935Z,12.70
2022-09-28T07:09:58.553Z,12.40
2022-09-28T07:15:25.130Z,12.00
2022-09-28T07:20:29.282Z,10.00
2022-09-28T07:25:36.085Z,10.10
2022-09-28T07:31:03.448Z,9.23
2022-09-28T07:36:27.026Z,8.20
2022-09-28T07:41:35.086Z,10.07
2022-09-28T07:46:43.393Z,10.82
2022-09-28T07:51:56.550Z,9.02
2022-09-28T07:57:07.102Z,6.47
2022-09-28T08:02:37.846Z,8.50
2022-09-28T08:07:42.805Z,8.85
2022-09-28T08:12:47.691Z,9.55
2022-09-28T08:18:20.622Z,7.32
2022-09-28T08:23:24.178Z,10.55
2022-09-28T08:28:30.344Z,10.63
2022-09-28T08:33:38.579Z,10.15
2022-09-28T08:39:01.121Z,12.32
2022-09-28T08:44:15.379Z,10.13
2022-09-28T08:49:47.398Z,10.88
2022-09-28T09:00:21.971Z,10.75
2022-09-28T09:05:41.689Z,13.18
2022-09-28T09:10:50.842Z,12.20
2022-09-28T09:16:08.317Z,8.68
2022-09-28T09:21:41.743Z,9.80
2022-09-28T09:26:46.044Z,9.50
2022-09-28T09:32:17.256Z,9.88
2022-09-28T09:37:34.683Z,13.25
2022-09-28T09:43:10.564Z,8.68
2022-09-28T10:09:00.719Z,8.38
2022-09-28T10:14:06.534Z,5.88
2022-09-28T10:19:29.185Z,5.28
2022-09-28T10:33:27.589Z,6.15
2022-09-28T10:38:33.948Z,4.38
2022-09-28T10:49:02.311Z,2.78
2022-09-28T10:54:15.510Z,3.63
2022-09-28T10:59:38.673Z,6.03
2022-09-28T11:05:01.831Z,3.50
2022-09-28T11:10:20.471Z,1.75
2022-09-28T11:29:30.927Z,3.88
2022-09-28T11:34:59.885Z,5.50
2022-09-28T11:40:17.425Z,2.10
2022-09-28T11:45:48.593Z,4.07
2022-09-28T11:50:56.604Z,3.70
2022-09-28T11:56:09.330Z,1.83
2022-09-28T12:01:22.033Z,3.60
2022-09-28T12:06:51.541Z,3.45
2022-09-28T12:12:02.351Z,4.47
2022-09-28T12:17:26.766Z,1.95
2022-09-28T12:22:34.736Z,2.75
2022-09-28T12:27:45.168Z,2.03
2022-09-28T12:32:53.127Z,1.98
2022-09-28T12:38:11.233Z,3.63
2022-09-28T12:43:30.109Z,2.67
2022-09-28T12:49:36.771Z,4.32
2022-09-28T12:54:41.041Z,2.97
2022-09-28T12:59:53.681Z,1.48
2022-09-28T13:05:16.113Z,2.28
2022-09-28T13:10:26.481Z,1.25
2022-09-28T13:15:44.501Z,1.40
2022-09-28T13:21:15.113Z,1.75
2022-09-28T13:26:24.841Z,2.40
2022-09-28T13:31:35.990Z,1.70
2022-09-28T13:36:47.244Z,4.30
2022-09-28T13:57:32.658Z,1.52
2022-09-28T14:02:39.632Z,1.05
2022-09-28T14:08:18.573Z,0.60
2022-09-28T14:13:59.512Z,1.25
2022-09-28T14:19:07.816Z,2.35
2022-09-28T14:24:26.640Z,1.58
2022-09-28T14:29:33.863Z,3.60
2022-09-28T14:34:41.543Z,2.95
2022-09-28T14:46:43.492Z,1.90
2022-09-28T14:52:10.440Z,1.00
2022-09-28T14:57:18.636Z,1.80
2022-09-28T15:02:31.458Z,2.80
2022-09-28T15:07:46.877Z,2.10
2022-09-28T15:12:52.813Z,4.13
2022-09-28T15:18:08.286Z,3.60
2022-09-28T15:23:26.698Z,3.40
2022-09-28T15:28:30.513Z,1.45
2022-09-28T15:33:54.028Z,3.25
2022-09-28T15:39:00.910Z,5.72
2022-09-28T15:44:29.116Z,3.10
2022-09-28T15:49:39.305Z,4.30
2022-09-28T15:54:45.060Z,7.65
2022-09-28T15:59:56.865Z,5.25
2022-09-28T16:05:02.395Z,5.30
2022-09-28T16:10:33.729Z,5.57
2022-09-28T16:15:38.044Z,4.70
2022-09-28T16:20:43.598Z,6.65
2022-09-28T16:36:11.106Z,5.72
2022-09-28T16:41:19.512Z,6.85
2022-09-28T16:46:29.404Z,4.07
2022-09-28T16:51:34.390Z,4.80
2022-09-28T16:56:37.760Z,5.87
2022-09-28T17:22:18.449Z,4.78
2022-09-28T17:27:21.691Z,7.65
2022-09-28T17:32:26.198Z,3.45
2022-09-28T17:37:29.468Z,3.90
2022-09-28T17:42:33.226Z,7.03
2022-09-28T17:47:38.455Z,4.90
2022-09-28T17:52:42.312Z,5.70
2022-09-28T17:58:16.098Z,5.47
2022-09-28T18:03:23.183Z,5.72
2022-09-28T18:08:27.636Z,6.75
2022-09-28T18:13:32.239Z,4.63
2022-09-28T18:18:39.849Z,6.13
2022-09-28T18:23:44.024Z,5.55
2022-09-28T18:28:48.097Z,6.55
2022-09-28T18:33:59.049Z,5.93
2022-09-28T18:39:03.129Z,8.90
2022-09-28T18:44:07.163Z,5.53
2022-09-28T18:49:12.249Z,5.82
2022-09-28T18:54:17.047Z,8.48
2022-09-28T18:59:20.283Z,6.03
2022-09-28T19:04:25.123Z,8.60
2022-09-28T19:09:28.418Z,8.65
2022-09-28T19:14:32.173Z,9.63
2022-09-28T19:19:36.689Z,9.13
2022-09-28T19:24:42.537Z,7.35
2022-09-28T19:29:45.797Z,9.63
2022-09-28T19:34:50.268Z,10.82
2022-09-28T19:40:48.661Z,8.15
2022-09-28T19:45:53.416Z,10.23
2022-09-28T19:50:59.666Z,11.17
2022-09-28T19:56:05.088Z,9.88
2022-09-28T20:01:08.281Z,9.43
2022-09-28T20:06:17.231Z,10.25
2022-09-28T20:11:21.341Z,10.65
2022-09-28T20:16:25.279Z,10.85
2022-09-28T20:21:30.492Z,7.25
2022-09-28T20:26:37.928Z,8.52
2022-09-28T20:31:41.158Z,9.30
2022-09-28T20:36:45.679Z,8.98
2022-09-28T20:41:49.285Z,8.60
2022-09-28T20:46:52.457Z,7.95
2022-09-28T20:51:56.940Z,8.30
2022-09-28T20:56:59.970Z,7.63
2022-09-28T21:02:03.329Z,9.80
2022-09-28T21:07:08.745Z,11.98
2022-09-28T21:17:15.885Z,7.88
2022-09-28T21:22:20.294Z,7.18
2022-09-28T21:27:23.449Z,8.07
2022-09-28T21:32:27.755Z,9.27
2022-09-28T21:37:32.289Z,7.27
2022-09-28T21:42:35.759Z,8.50
2022-09-28T21:47:41.335Z,9.45
2022-09-28T21:52:45.822Z,8.25
2022-09-28T21:57:53.305Z,8.20
2022-09-28T22:02:57.076Z,7.82
2022-09-28T22:08:01.800Z,9.05
2022-09-28T22:13:04.890Z,9.80
2022-09-28T22:18:07.930Z,8.15
2022-09-28T22:23:12.427Z,7.82
2022-09-28T22:28:15.867Z,9.97
2022-09-28T22:33:19.286Z,8.20
2022-09-28T22:38:24.734Z,7.82
2022-09-28T22:48:31.962Z,8.65
2022-09-28T22:53:36.407Z,11.38
2022-09-28T22:58:39.510Z,11.10
2022-09-28T23:03:42.847Z,7.45
2022-09-28T23:08:48.661Z,8.10
2022-09-28T23:13:52.734Z,8.50
2022-09-28T23:18:56.277Z,9.02
2022-09-28T23:24:01.652Z,10.93
2022-09-28T23:34:07.923Z,10.85
2022-09-28T23:39:12.505Z,9.13
2022-09-28T23:44:15.570Z,13.00
2022-09-28T23:49:18.833Z,12.00
2022-09-28T23:54:23.325Z,15.23
